sensor_id;sensor_type;location;lat;lon;timestamp;P1;durP1;ratioP1;P2;durP2;ratioP2
20888;SDS011;10604;51.976;7.594;2022-11-23T00:00:00;2.45;;;1.00;;
20888;SDS011;10604;51.976;7.594;2022-11-23T00:02:26;3.47;;;1.20;;
20888;SDS011;10604;51.976;7.594;2022-11-23T00:04:51;2.83;;;1.13;;
20888;SDS011;10604;51.976;7.594;2022-11-23T00:07:16;3.38;;;1.20;;
20888;SDS011;10604;51.976;7.594;2022-11-23T00:09:42;1.20;;;1.08;;
20888;SDS011;10604;51.976;7.594;2022-11-23T00:12:07;3.97;;;1.00;;
20888;SDS011;10604;51.976;7.594;2022-11-23T00:14:32;3.65;;;1.25;;
20888;SDS011;10604;51.976;7.594;2022-11-23T00:16:58;1.52;;;0.80;;
20888;SDS011;10604;51.976;7.594;2022-11-23T00:19:23;6.32;;;1.45;;
20888;SDS011;10604;51.976;7.594;2022-11-23T00:21:48;3.10;;;1.20;;
20888;SDS011;10604;51.976;7.594;2022-11-23T00:24:14;2.10;;;1.00;;
20888;SDS011;10604;51.976;7.594;2022-11-23T00:26:39;4.45;;;1.45;;
20888;SDS011;10604;51.976;7.594;2022-11-23T00:29:04;3.72;;;1.38;;
20888;SDS011;10604;51.976;7.594;2022-11-23T00:31:30;3.50;;;1.17;;
20888;SDS011;10604;51.976;7.594;2022-11-23T00:33:56;1.95;;;1.30;;
20888;SDS011;10604;51.976;7.594;2022-11-23T00:36:22;2.00;;;1.10;;
20888;SDS011;10604;51.976;7.594;2022-11-23T00:38:49;3.67;;;1.30;;
20888;SDS011;10604;51.976;7.594;2022-11-23T00:41:16;5.15;;;1.40;;
20888;SDS011;10604;51.976;7.594;2022-11-23T00:43:43;3.50;;;1.23;;
20888;SDS011;10604;51.976;7.594;2022-11-23T00:46:13;3.53;;;1.13;;
20888;SDS011;10604;51.976;7.594;2022-11-23T00:48:46;3.30;;;0.90;;
20888;SDS011;10604;51.976;7.594;2022-11-23T00:51:14;4.18;;;1.15;;
20888;SDS011;10604;51.976;7.594;2022-11-23T00:53:42;4.45;;;1.30;;
20888;SDS011;10604;51.976;7.594;2022-11-23T00:56:08;3.92;;;1.30;;
20888;SDS011;10604;51.976;7.594;2022-11-23T00:58:34;5.18;;;1.30;;
20888;SDS011;10604;51.976;7.594;2022-11-23T01:01:10;3.30;;;1.20;;
20888;SDS011;10604;51.976;7.594;2022-11-23T01:03:38;3.75;;;1.35;;
20888;SDS011;10604;51.976;7.594;2022-11-23T01:06:07;3.15;;;1.30;;
20888;SDS011;10604;51.976;7.594;2022-11-23T01:08:40;3.10;;;1.20;;
20888;SDS011;10604;51.976;7.594;2022-11-23T01:11:07;3.10;;;1.40;;
20888;SDS011;10604;51.976;7.594;2022-11-23T01:13:35;3.10;;;1.10;;
20888;SDS011;10604;51.976;7.594;2022-11-23T01:16:01;4.72;;;1.42;;
20888;SDS011;10604;51.976;7.594;2022-11-23T01:18:27;3.70;;;1.30;;
20888;SDS011;10604;51.976;7.594;2022-11-23T01:20:52;3.67;;;1.17;;
20888;SDS011;10604;51.976;7.594;2022-11-23T01:23:18;2.40;;;1.10;;
20888;SDS011;10604;51.976;7.594;2022-11-23T01:25:44;4.80;;;1.05;;
20888;SDS011;10604;51.976;7.594;2022-11-23T01:28:09;4.20;;;1.13;;
20888;SDS011;10604;51.976;7.594;2022-11-23T01:30:34;5.18;;;1.25;;
20888;SDS011;10604;51.976;7.594;2022-11-23T01:33:00;2.67;;;1.10;;
20888;SDS011;10604;51.976;7.594;2022-11-23T01:35:29;2.88;;;1.10;;
20888;SDS011;10604;51.976;7.594;2022-11-23T01:37:54;9.43;;;1.63;;
20888;SDS011;10604;51.976;7.594;2022-11-23T01:40:20;3.20;;;1.50;;
20888;SDS011;10604;51.976;7.594;2022-11-23T01:42:48;5.18;;;1.40;;
20888;SDS011;10604;51.976;7.594;2022-11-23T01:48:00;2.25;;;1.05;;
20888;SDS011;10604;51.976;7.594;2022-11-23T01:50:29;4.53;;;1.80;;
20888;SDS011;10604;51.976;7.594;2022-11-23T01:52:54;3.60;;;1.40;;
20888;SDS011;10604;51.976;7.594;2022-11-23T01:55:20;3.60;;;1.08;;
20888;SDS011;10604;51.976;7.594;2022-11-23T01:57:46;3.63;;;1.20;;
20888;SDS011;10604;51.976;7.594;2022-11-23T02:00:12;5.28;;;1.35;;
20888;SDS011;10604;51.976;7.594;2022-11-23T02:02:38;2.95;;;1.25;;
20888;SDS011;10604;51.976;7.594;2022-11-23T02:05:09;5.63;;;1.45;;
20888;SDS011;10604;51.976;7.594;2022-11-23T02:07:35;3.90;;;1.23;;
20888;SDS011;10604;51.976;7.594;2022-11-23T02:10:02;2.95;;;1.27;;
20888;SDS011;10604;51.976;7.594;2022-11-23T02:12:28;5.05;;;1.35;;
20888;SDS011;10604;51.976;7.594;2022-11-23T02:14:53;5.10;;;1.48;;
20888;SDS011;10604;51.976;7.594;2022-11-23T02:17:19;4.32;;;1.75;;
20888;SDS011;10604;51.976;7.594;2022-11-23T02:22:45;3.42;;;1.40;;
20888;SDS011;10604;51.976;7.594;2022-11-23T02:25:31;5.57;;;1.40;;
20888;SDS011;10604;51.976;7.594;2022-11-23T02:28:04;3.80;;;1.70;;
20888;SDS011;10604;51.976;7.594;2022-11-23T02:30:30;5.45;;;2.05;;
20888;SDS011;10604;51.976;7.594;2022-11-23T02:32:57;4.35;;;1.67;;
20888;SDS011;10604;51.976;7.594;2022-11-23T02:35:22;2.42;;;1.40;;
20888;SDS011;10604;51.976;7.594;2022-11-23T02:37:48;2.67;;;1.45;;
20888;SDS011;10604;51.976;7.594;2022-11-23T02:40:19;3.78;;;1.58;;
20888;SDS011;10604;51.976;7.594;2022-11-23T02:42:56;7.70;;;2.15;;
20888;SDS011;10604;51.976;7.594;2022-11-23T02:45:26;2.40;;;1.55;;
20888;SDS011;10604;51.976;7.594;2022-11-23T02:47:54;2.50;;;1.25;;
20888;SDS011;10604;51.976;7.594;2022-11-23T02:50:20;3.67;;;1.60;;
20888;SDS011;10604;51.976;7.594;2022-11-23T02:52:46;3.22;;;1.23;;
20888;SDS011;10604;51.976;7.594;2022-11-23T02:55:12;5.25;;;1.58;;
20888;SDS011;10604;51.976;7.594;2022-11-23T02:57:37;3.00;;;1.70;;
20888;SDS011;10604;51.976;7.594;2022-11-23T03:00:03;5.57;;;1.70;;
20888;SDS011;10604;51.976;7.594;2022-11-23T03:02:29;3.20;;;1.60;;
20888;SDS011;10604;51.976;7.594;2022-11-23T03:04:54;3.50;;;1.92;;
20888;SDS011;10604;51.976;7.594;2022-11-23T03:07:20;3.63;;;2.03;;
20888;SDS011;10604;51.976;7.594;2022-11-23T03:09:45;3.17;;;1.35;;
20888;SDS011;10604;51.976;7.594;2022-11-23T03:12:11;4.88;;;1.92;;
20888;SDS011;10604;51.976;7.594;2022-11-23T03:14:36;4.15;;;1.73;;
20888;SDS011;10604;51.976;7.594;2022-11-23T03:17:02;5.97;;;1.88;;
20888;SDS011;10604;51.976;7.594;2022-11-23T03:19:28;4.80;;;1.50;;
20888;SDS011;10604;51.976;7.594;2022-11-23T03:21:53;4.63;;;1.60;;
20888;SDS011;10604;51.976;7.594;2022-11-23T03:24:19;7.47;;;1.80;;
20888;SDS011;10604;51.976;7.594;2022-11-23T03:26:44;3.78;;;1.40;;
20888;SDS011;10604;51.976;7.594;2022-11-23T03:29:09;4.05;;;1.50;;
20888;SDS011;10604;51.976;7.594;2022-11-23T03:31:35;6.45;;;1.42;;
20888;SDS011;10604;51.976;7.594;2022-11-23T03:34:00;3.85;;;1.70;;
20888;SDS011;10604;51.976;7.594;2022-11-23T03:36:25;6.30;;;1.75;;
20888;SDS011;10604;51.976;7.594;2022-11-23T03:38:51;2.47;;;1.50;;
20888;SDS011;10604;51.976;7.594;2022-11-23T03:41:16;4.88;;;2.13;;
20888;SDS011;10604;51.976;7.594;2022-11-23T03:43:41;3.25;;;1.50;;
20888;SDS011;10604;51.976;7.594;2022-11-23T03:46:07;6.60;;;1.80;;
20888;SDS011;10604;51.976;7.594;2022-11-23T03:48:32;1.85;;;1.40;;
20888;SDS011;10604;51.976;7.594;2022-11-23T03:50:57;4.07;;;1.60;;
20888;SDS011;10604;51.976;7.594;2022-11-23T03:53:23;3.83;;;1.70;;
20888;SDS011;10604;51.976;7.594;2022-11-23T03:55:48;4.00;;;1.58;;
20888;SDS011;10604;51.976;7.594;2022-11-23T03:58:13;5.57;;;1.75;;
20888;SDS011;10604;51.976;7.594;2022-11-23T04:00:39;6.30;;;1.63;;
20888;SDS011;10604;51.976;7.594;2022-11-23T04:03:04;2.75;;;1.42;;
20888;SDS011;10604;51.976;7.594;2022-11-23T04:05:29;4.28;;;1.85;;
20888;SDS011;10604;51.976;7.594;2022-11-23T04:07:55;2.78;;;1.33;;
20888;SDS011;10604;51.976;7.594;2022-11-23T04:10:20;2.72;;;1.45;;
20888;SDS011;10604;51.976;7.594;2022-11-23T04:12:49;1.40;;;1.02;;
20888;SDS011;10604;51.976;7.594;2022-11-23T04:15:16;3.88;;;1.40;;
20888;SDS011;10604;51.976;7.594;2022-11-23T04:17:41;3.47;;;1.30;;
20888;SDS011;10604;51.976;7.594;2022-11-23T04:20:06;4.32;;;1.50;;
20888;SDS011;10604;51.976;7.594;2022-11-23T04:22:32;4.05;;;1.10;;
20888;SDS011;10604;51.976;7.594;2022-11-23T04:24:57;4.20;;;1.60;;
20888;SDS011;10604;51.976;7.594;2022-11-23T04:27:23;5.15;;;1.67;;
20888;SDS011;10604;51.976;7.594;2022-11-23T04:29:48;4.03;;;1.52;;
20888;SDS011;10604;51.976;7.594;2022-11-23T04:32:13;3.70;;;1.20;;
20888;SDS011;10604;51.976;7.594;2022-11-23T04:34:39;2.90;;;1.35;;
20888;SDS011;10604;51.976;7.594;2022-11-23T04:37:04;3.38;;;1.50;;
20888;SDS011;10604;51.976;7.594;2022-11-23T04:39:29;4.53;;;1.75;;
20888;SDS011;10604;51.976;7.594;2022-11-23T04:41:55;2.47;;;1.30;;
20888;SDS011;10604;51.976;7.594;2022-11-23T04:44:20;4.55;;;1.27;;
20888;SDS011;10604;51.976;7.594;2022-11-23T04:46:46;5.60;;;1.88;;
20888;SDS011;10604;51.976;7.594;2022-11-23T04:49:11;3.75;;;1.70;;
20888;SDS011;10604;51.976;7.594;2022-11-23T04:51:37;2.20;;;1.40;;
20888;SDS011;10604;51.976;7.594;2022-11-23T04:54:02;2.60;;;1.15;;
20888;SDS011;10604;51.976;7.594;2022-11-23T04:56:28;4.90;;;1.65;;
20888;SDS011;10604;51.976;7.594;2022-11-23T04:58:53;3.88;;;1.80;;
20888;SDS011;10604;51.976;7.594;2022-11-23T05:01:18;3.28;;;1.42;;
20888;SDS011;10604;51.976;7.594;2022-11-23T05:03:44;3.65;;;1.92;;
20888;SDS011;10604;51.976;7.594;2022-11-23T05:06:09;6.18;;;1.83;;
20888;SDS011;10604;51.976;7.594;2022-11-23T05:08:35;6.03;;;2.00;;
20888;SDS011;10604;51.976;7.594;2022-11-23T05:11:00;4.68;;;2.03;;
20888;SDS011;10604;51.976;7.594;2022-11-23T05:13:26;6.13;;;1.58;;
20888;SDS011;10604;51.976;7.594;2022-11-23T05:15:51;7.55;;;1.88;;
20888;SDS011;10604;51.976;7.594;2022-11-23T05:18:16;5.57;;;1.85;;
20888;SDS011;10604;51.976;7.594;2022-11-23T05:20:42;4.70;;;2.20;;
20888;SDS011;10604;51.976;7.594;2022-11-23T05:23:08;9.48;;;2.50;;
20888;SDS011;10604;51.976;7.594;2022-11-23T05:25:33;4.60;;;1.98;;
20888;SDS011;10604;51.976;7.594;2022-11-23T05:27:59;4.20;;;2.85;;
20888;SDS011;10604;51.976;7.594;2022-11-23T05:30:24;4.93;;;2.40;;
20888;SDS011;10604;51.976;7.594;2022-11-23T05:32:50;5.18;;;2.03;;
20888;SDS011;10604;51.976;7.594;2022-11-23T05:35:15;4.85;;;2.05;;
20888;SDS011;10604;51.976;7.594;2022-11-23T05:37:41;3.45;;;2.08;;
20888;SDS011;10604;51.976;7.594;2022-11-23T05:40:06;5.10;;;2.22;;
20888;SDS011;10604;51.976;7.594;2022-11-23T05:42:32;2.78;;;1.85;;
20888;SDS011;10604;51.976;7.594;2022-11-23T05:44:57;6.82;;;2.10;;
20888;SDS011;10604;51.976;7.594;2022-11-23T05:47:23;3.50;;;1.98;;
20888;SDS011;10604;51.976;7.594;2022-11-23T05:49:48;4.20;;;1.90;;
20888;SDS011;10604;51.976;7.594;2022-11-23T05:52:15;4.45;;;1.70;;
20888;SDS011;10604;51.976;7.594;2022-11-23T05:54:40;4.57;;;1.70;;
20888;SDS011;10604;51.976;7.594;2022-11-23T05:57:06;6.72;;;2.00;;
20888;SDS011;10604;51.976;7.594;2022-11-23T05:59:31;2.72;;;1.52;;
20888;SDS011;10604;51.976;7.594;2022-11-23T06:01:57;3.58;;;1.88;;
20888;SDS011;10604;51.976;7.594;2022-11-23T06:04:22;11.88;;;6.70;;
20888;SDS011;10604;51.976;7.594;2022-11-23T06:06:47;6.78;;;4.05;;
20888;SDS011;10604;51.976;7.594;2022-11-23T06:09:13;6.25;;;3.00;;
20888;SDS011;10604;51.976;7.594;2022-11-23T06:11:38;6.80;;;4.25;;
20888;SDS011;10604;51.976;7.594;2022-11-23T06:14:04;6.57;;;2.95;;
20888;SDS011;10604;51.976;7.594;2022-11-23T06:16:29;5.25;;;2.80;;
20888;SDS011;10604;51.976;7.594;2022-11-23T06:18:54;7.90;;;3.50;;
20888;SDS011;10604;51.976;7.594;2022-11-23T06:21:20;6.07;;;2.90;;
20888;SDS011;10604;51.976;7.594;2022-11-23T06:23:46;5.63;;;3.45;;
20888;SDS011;10604;51.976;7.594;2022-11-23T06:26:11;8.88;;;4.28;;
20888;SDS011;10604;51.976;7.594;2022-11-23T06:28:36;4.63;;;3.08;;
20888;SDS011;10604;51.976;7.594;2022-11-23T06:31:02;5.10;;;2.97;;
20888;SDS011;10604;51.976;7.594;2022-11-23T06:33:29;12.23;;;4.50;;
20888;SDS011;10604;51.976;7.594;2022-11-23T06:35:56;7.60;;;4.00;;
20888;SDS011;10604;51.976;7.594;2022-11-23T06:38:22;7.85;;;4.35;;
20888;SDS011;10604;51.976;7.594;2022-11-23T06:40:48;5.50;;;3.15;;
20888;SDS011;10604;51.976;7.594;2022-11-23T06:43:13;7.65;;;3.15;;
20888;SDS011;10604;51.976;7.594;2022-11-23T06:45:39;5.28;;;2.75;;
20888;SDS011;10604;51.976;7.594;2022-11-23T06:48:04;9.52;;;2.75;;
20888;SDS011;10604;51.976;7.594;2022-11-23T06:50:30;5.20;;;2.63;;
20888;SDS011;10604;51.976;7.594;2022-11-23T06:52:56;6.05;;;2.97;;
20888;SDS011;10604;51.976;7.594;2022-11-23T06:55:22;5.55;;;2.80;;
20888;SDS011;10604;51.976;7.594;2022-11-23T06:57:48;7.40;;;3.85;;
20888;SDS011;10604;51.976;7.594;2022-11-23T07:00:14;5.32;;;3.67;;
20888;SDS011;10604;51.976;7.594;2022-11-23T07:02:40;6.18;;;3.65;;
20888;SDS011;10604;51.976;7.594;2022-11-23T07:05:05;4.63;;;3.10;;
20888;SDS011;10604;51.976;7.594;2022-11-23T07:07:31;8.48;;;3.22;;
20888;SDS011;10604;51.976;7.594;2022-11-23T07:09:56;7.03;;;2.83;;
20888;SDS011;10604;51.976;7.594;2022-11-23T07:12:22;4.07;;;2.35;;
20888;SDS011;10604;51.976;7.594;2022-11-23T07:14:47;6.22;;;2.05;;
20888;SDS011;10604;51.976;7.594;2022-11-23T07:17:13;5.18;;;2.35;;
20888;SDS011;10604;51.976;7.594;2022-11-23T07:19:38;4.07;;;2.10;;
20888;SDS011;10604;51.976;7.594;2022-11-23T07:22:03;6.32;;;2.33;;
20888;SDS011;10604;51.976;7.594;2022-11-23T07:24:29;6.30;;;2.40;;
20888;SDS011;10604;51.976;7.594;2022-11-23T07:26:54;8.10;;;2.22;;
20888;SDS011;10604;51.976;7.594;2022-11-23T07:29:19;3.67;;;2.00;;
20888;SDS011;10604;51.976;7.594;2022-11-23T07:31:45;5.95;;;2.00;;
20888;SDS011;10604;51.976;7.594;2022-11-23T07:34:10;4.13;;;1.90;;
20888;SDS011;10604;51.976;7.594;2022-11-23T07:36:36;4.28;;;1.80;;
20888;SDS011;10604;51.976;7.594;2022-11-23T07:39:01;6.65;;;1.95;;
20888;SDS011;10604;51.976;7.594;2022-11-23T07:41:27;5.82;;;1.95;;
20888;SDS011;10604;51.976;7.594;2022-11-23T07:43:52;7.38;;;1.83;;
20888;SDS011;10604;51.976;7.594;2022-11-23T07:46:18;5.30;;;4.10;;
20888;SDS011;10604;51.976;7.594;2022-11-23T07:48:44;6.53;;;2.30;;
20888;SDS011;10604;51.976;7.594;2022-11-23T07:51:09;5.22;;;2.40;;
20888;SDS011;10604;51.976;7.594;2022-11-23T07:53:34;5.95;;;3.70;;
20888;SDS011;10604;51.976;7.594;2022-11-23T07:56:00;5.32;;;3.38;;
20888;SDS011;10604;51.976;7.594;2022-11-23T07:58:26;6.18;;;2.70;;
20888;SDS011;10604;51.976;7.594;2022-11-23T08:00:51;8.55;;;2.72;;
20888;SDS011;10604;51.976;7.594;2022-11-23T08:03:17;7.07;;;2.85;;
20888;SDS011;10604;51.976;7.594;2022-11-23T08:05:43;6.50;;;2.08;;
20888;SDS011;10604;51.976;7.594;2022-11-23T08:08:09;5.97;;;1.80;;
20888;SDS011;10604;51.976;7.594;2022-11-23T08:10:34;5.82;;;2.35;;
20888;SDS011;10604;51.976;7.594;2022-11-23T08:13:00;5.60;;;2.08;;
20888;SDS011;10604;51.976;7.594;2022-11-23T08:15:28;3.95;;;1.80;;
20888;SDS011;10604;51.976;7.594;2022-11-23T08:17:57;3.13;;;1.65;;
20888;SDS011;10604;51.976;7.594;2022-11-23T08:20:24;8.60;;;1.88;;
20888;SDS011;10604;51.976;7.594;2022-11-23T08:22:50;4.80;;;1.98;;
20888;SDS011;10604;51.976;7.594;2022-11-23T08:25:15;7.47;;;2.38;;
20888;SDS011;10604;51.976;7.594;2022-11-23T08:27:40;5.55;;;2.67;;
20888;SDS011;10604;51.976;7.594;2022-11-23T08:30:06;5.32;;;2.20;;
20888;SDS011;10604;51.976;7.594;2022-11-23T08:32:32;5.32;;;2.47;;
20888;SDS011;10604;51.976;7.594;2022-11-23T08:34:57;7.28;;;2.20;;
20888;SDS011;10604;51.976;7.594;2022-11-23T08:37:22;6.10;;;2.20;;
20888;SDS011;10604;51.976;7.594;2022-11-23T08:39:48;8.63;;;4.03;;
20888;SDS011;10604;51.976;7.594;2022-11-23T08:42:13;4.35;;;2.08;;
20888;SDS011;10604;51.976;7.594;2022-11-23T08:44:38;4.30;;;2.35;;
20888;SDS011;10604;51.976;7.594;2022-11-23T08:47:04;2.95;;;1.75;;
20888;SDS011;10604;51.976;7.594;2022-11-23T08:49:29;6.25;;;2.00;;
20888;SDS011;10604;51.976;7.594;2022-11-23T08:51:54;7.25;;;1.80;;
20888;SDS011;10604;51.976;7.594;2022-11-23T08:54:20;3.53;;;1.60;;
20888;SDS011;10604;51.976;7.594;2022-11-23T08:56:48;4.78;;;1.80;;
20888;SDS011;10604;51.976;7.594;2022-11-23T08:59:14;3.53;;;1.75;;
20888;SDS011;10604;51.976;7.594;2022-11-23T09:01:41;3.55;;;1.67;;
20888;SDS011;10604;51.976;7.594;2022-11-23T09:04:06;3.53;;;1.52;;
20888;SDS011;10604;51.976;7.594;2022-11-23T09:06:32;5.25;;;1.25;;
20888;SDS011;10604;51.976;7.594;2022-11-23T09:08:58;4.88;;;1.25;;
20888;SDS011;10604;51.976;7.594;2022-11-23T09:11:23;2.90;;;1.33;;
20888;SDS011;10604;51.976;7.594;2022-11-23T09:13:50;5.00;;;1.58;;
20888;SDS011;10604;51.976;7.594;2022-11-23T09:16:15;4.75;;;1.73;;
20888;SDS011;10604;51.976;7.594;2022-11-23T09:18:41;4.50;;;1.50;;
20888;SDS011;10604;51.976;7.594;2022-11-23T09:21:06;5.88;;;1.80;;
20888;SDS011;10604;51.976;7.594;2022-11-23T09:23:32;5.60;;;1.52;;
20888;SDS011;10604;51.976;7.594;2022-11-23T09:25:58;3.70;;;1.15;;
20888;SDS011;10604;51.976;7.594;2022-11-23T09:28:24;7.85;;;2.00;;
20888;SDS011;10604;51.976;7.594;2022-11-23T09:30:51;6.70;;;2.20;;
20888;SDS011;10604;51.976;7.594;2022-11-23T09:33:17;5.55;;;1.80;;
20888;SDS011;10604;51.976;7.594;2022-11-23T09:35:42;7.45;;;5.18;;
20888;SDS011;10604;51.976;7.594;2022-11-23T09:38:08;9.20;;;5.15;;
20888;SDS011;10604;51.976;7.594;2022-11-23T09:40:37;9.50;;;5.15;;
20888;SDS011;10604;51.976;7.594;2022-11-23T09:46:01;5.90;;;2.58;;
20888;SDS011;10604;51.976;7.594;2022-11-23T09:53:34;3.83;;;1.67;;
20888;SDS011;10604;51.976;7.594;2022-11-23T09:56:19;5.80;;;1.58;;
20888;SDS011;10604;51.976;7.594;2022-11-23T09:58:48;9.45;;;1.77;;
20888;SDS011;10604;51.976;7.594;2022-11-23T10:01:18;3.50;;;1.00;;
20888;SDS011;10604;51.976;7.594;2022-11-23T10:03:44;6.40;;;1.27;;
20888;SDS011;10604;51.976;7.594;2022-11-23T10:06:20;4.70;;;1.27;;
20888;SDS011;10604;51.976;7.594;2022-11-23T10:23:28;4.15;;;1.20;;
20888;SDS011;10604;51.976;7.594;2022-11-23T10:25:58;3.58;;;1.10;;
20888;SDS011;10604;51.976;7.594;2022-11-23T10:28:24;6.47;;;1.20;;
20888;SDS011;10604;51.976;7.594;2022-11-23T10:30:56;3.78;;;1.35;;
20888;SDS011;10604;51.976;7.594;2022-11-23T10:33:30;5.07;;;1.60;;
20888;SDS011;10604;51.976;7.594;2022-11-23T10:36:01;6.68;;;1.60;;
20888;SDS011;10604;51.976;7.594;2022-11-23T10:38:27;5.97;;;1.25;;
20888;SDS011;10604;51.976;7.594;2022-11-23T10:41:00;11.13;;;1.52;;
20888;SDS011;10604;51.976;7.594;2022-11-23T10:43:35;7.22;;;1.60;;
20888;SDS011;10604;51.976;7.594;2022-11-23T10:46:25;4.82;;;1.25;;
20888;SDS011;10604;51.976;7.594;2022-11-23T10:51:48;4.07;;;1.30;;
20888;SDS011;10604;51.976;7.594;2022-11-23T10:54:19;6.43;;;1.75;;
20888;SDS011;10604;51.976;7.594;2022-11-23T10:56:49;6.68;;;1.45;;
20888;SDS011;10604;51.976;7.594;2022-11-23T10:59:35;4.22;;;1.58;;
20888;SDS011;10604;51.976;7.594;2022-11-23T11:02:18;12.20;;;2.08;;
20888;SDS011;10604;51.976;7.594;2022-11-23T11:04:46;8.70;;;1.73;;
20888;SDS011;10604;51.976;7.594;2022-11-23T11:07:34;5.28;;;2.08;;
20888;SDS011;10604;51.976;7.594;2022-11-23T11:10:01;9.93;;;2.50;;
20888;SDS011;10604;51.976;7.594;2022-11-23T11:12:28;7.25;;;2.28;;
20888;SDS011;10604;51.976;7.594;2022-11-23T11:17:29;5.63;;;2.28;;
20888;SDS011;10604;51.976;7.594;2022-11-23T11:19:59;5.40;;;1.50;;
20888;SDS011;10604;51.976;7.594;2022-11-23T11:22:44;9.05;;;2.53;;
20888;SDS011;10604;51.976;7.594;2022-11-23T11:25:17;4.60;;;1.45;;
20888;SDS011;10604;51.976;7.594;2022-11-23T11:27:52;7.35;;;1.58;;
20888;SDS011;10604;51.976;7.594;2022-11-23T11:30:21;8.60;;;2.03;;
20888;SDS011;10604;51.976;7.594;2022-11-23T11:32:58;9.75;;;3.45;;
20888;SDS011;10604;51.976;7.594;2022-11-23T11:35:39;5.80;;;2.13;;
20888;SDS011;10604;51.976;7.594;2022-11-23T11:38:12;6.85;;;1.98;;
20888;SDS011;10604;51.976;7.594;2022-11-23T11:40:46;6.00;;;2.05;;
20888;SDS011;10604;51.976;7.594;2022-11-23T11:43:18;7.97;;;1.85;;
20888;SDS011;10604;51.976;7.594;2022-11-23T11:45:48;11.85;;;1.92;;
20888;SDS011;10604;51.976;7.594;2022-11-23T11:48:18;7.43;;;1.73;;
20888;SDS011;10604;51.976;7.594;2022-11-23T11:50:50;11.43;;;1.92;;
20888;SDS011;10604;51.976;7.594;2022-11-23T11:53:27;5.43;;;1.95;;
20888;SDS011;10604;51.976;7.594;2022-11-23T11:58:35;6.88;;;2.70;;
20888;SDS011;10604;51.976;7.594;2022-11-23T12:01:11;5.40;;;2.05;;
20888;SDS011;10604;51.976;7.594;2022-11-23T12:03:51;7.80;;;1.83;;
20888;SDS011;10604;51.976;7.594;2022-11-23T12:06:25;5.57;;;1.83;;
20888;SDS011;10604;51.976;7.594;2022-11-23T12:09:13;11.23;;;2.75;;
20888;SDS011;10604;51.976;7.594;2022-11-23T12:11:42;9.68;;;3.50;;
20888;SDS011;10604;51.976;7.594;2022-11-23T12:14:09;6.50;;;3.03;;
20888;SDS011;10604;51.976;7.594;2022-11-23T12:19:19;6.20;;;1.90;;
20888;SDS011;10604;51.976;7.594;2022-11-23T12:35:30;4.78;;;1.55;;
20888;SDS011;10604;51.976;7.594;2022-11-23T12:40:47;7.82;;;2.53;;
20888;SDS011;10604;51.976;7.594;2022-11-23T12:43:30;4.10;;;2.10;;
20888;SDS011;10604;51.976;7.594;2022-11-23T12:46:09;9.98;;;2.25;;
20888;SDS011;10604;51.976;7.594;2022-11-23T12:49:00;7.00;;;1.92;;
20888;SDS011;10604;51.976;7.594;2022-11-23T12:51:32;3.63;;;1.27;;
20888;SDS011;10604;51.976;7.594;2022-11-23T12:59:51;7.72;;;1.70;;
20888;SDS011;10604;51.976;7.594;2022-11-23T13:05:30;7.22;;;1.67;;
20888;SDS011;10604;51.976;7.594;2022-11-23T13:21:21;5.50;;;1.60;;
20888;SDS011;10604;51.976;7.594;2022-11-23T13:24:00;4.90;;;1.50;;
20888;SDS011;10604;51.976;7.594;2022-11-23T13:26:26;7.95;;;2.05;;
20888;SDS011;10604;51.976;7.594;2022-11-23T13:28:52;6.13;;;2.35;;
20888;SDS011;10604;51.976;7.594;2022-11-23T13:31:25;7.38;;;1.50;;
20888;SDS011;10604;51.976;7.594;2022-11-23T13:33:52;6.95;;;1.75;;
20888;SDS011;10604;51.976;7.594;2022-11-23T13:36:39;12.10;;;1.98;;
20888;SDS011;10604;51.976;7.594;2022-11-23T13:42:11;6.03;;;2.33;;
20888;SDS011;10604;51.976;7.594;2022-11-23T13:44:37;8.73;;;2.28;;
20888;SDS011;10604;51.976;7.594;2022-11-23T13:47:03;4.15;;;1.65;;
20888;SDS011;10604;51.976;7.594;2022-11-23T13:49:46;9.85;;;2.47;;
20888;SDS011;10604;51.976;7.594;2022-11-23T13:57:29;9.02;;;2.53;;
20888;SDS011;10604;51.976;7.594;2022-11-23T14:06:01;3.40;;;1.58;;
20888;SDS011;10604;51.976;7.594;2022-11-23T14:08:27;4.95;;;2.05;;
20888;SDS011;10604;51.976;7.594;2022-11-23T14:10:54;3.83;;;2.08;;
20888;SDS011;10604;51.976;7.594;2022-11-23T14:13:22;6.70;;;2.10;;
20888;SDS011;10604;51.976;7.594;2022-11-23T14:15:59;8.30;;;3.72;;
20888;SDS011;10604;51.976;7.594;2022-11-23T14:24:06;10.23;;;4.25;;
20888;SDS011;10604;51.976;7.594;2022-11-23T14:29:39;6.13;;;2.60;;
20888;SDS011;10604;51.976;7.594;2022-11-23T14:34:54;7.07;;;2.40;;
20888;SDS011;10604;51.976;7.594;2022-11-23T14:40:25;7.47;;;1.88;;
20888;SDS011;10604;51.976;7.594;2022-11-23T14:42:57;5.15;;;2.75;;
20888;SDS011;10604;51.976;7.594;2022-11-23T14:45:28;7.05;;;2.35;;
20888;SDS011;10604;51.976;7.594;2022-11-23T14:47:57;7.10;;;2.08;;
20888;SDS011;10604;51.976;7.594;2022-11-23T14:50:52;3.72;;;2.00;;
20888;SDS011;10604;51.976;7.594;2022-11-23T14:53:19;6.53;;;1.90;;
20888;SDS011;10604;51.976;7.594;2022-11-23T14:55:46;7.63;;;2.47;;
20888;SDS011;10604;51.976;7.594;2022-11-23T14:58:12;8.45;;;3.50;;
20888;SDS011;10604;51.976;7.594;2022-11-23T15:00:41;6.38;;;2.92;;
20888;SDS011;10604;51.976;7.594;2022-11-23T15:03:12;6.85;;;3.85;;
20888;SDS011;10604;51.976;7.594;2022-11-23T15:05:42;4.57;;;2.95;;
20888;SDS011;10604;51.976;7.594;2022-11-23T15:08:12;6.50;;;2.22;;
20888;SDS011;10604;51.976;7.594;2022-11-23T15:10:47;6.18;;;2.88;;
20888;SDS011;10604;51.976;7.594;2022-11-23T15:13:23;8.38;;;3.20;;
20888;SDS011;10604;51.976;7.594;2022-11-23T15:15:50;9.30;;;3.13;;
20888;SDS011;10604;51.976;7.594;2022-11-23T15:18:28;5.30;;;2.58;;
20888;SDS011;10604;51.976;7.594;2022-11-23T15:20:54;6.07;;;2.53;;
20888;SDS011;10604;51.976;7.594;2022-11-23T15:23:25;7.00;;;2.28;;
20888;SDS011;10604;51.976;7.594;2022-11-23T15:26:09;5.78;;;1.77;;
20888;SDS011;10604;51.976;7.594;2022-11-23T15:28:37;4.65;;;2.30;;
20888;SDS011;10604;51.976;7.594;2022-11-23T15:34:04;7.80;;;3.78;;
20888;SDS011;10604;51.976;7.594;2022-11-23T15:36:38;10.68;;;3.63;;
20888;SDS011;10604;51.976;7.594;2022-11-23T15:39:04;9.27;;;3.70;;
20888;SDS011;10604;51.976;7.594;2022-11-23T15:41:32;6.20;;;2.85;;
20888;SDS011;10604;51.976;7.594;2022-11-23T15:44:00;8.75;;;3.22;;
20888;SDS011;10604;51.976;7.594;2022-11-23T15:46:40;6.50;;;2.67;;
20888;SDS011;10604;51.976;7.594;2022-11-23T15:49:10;7.07;;;2.30;;
20888;SDS011;10604;51.976;7.594;2022-11-23T15:51:39;5.07;;;2.10;;
20888;SDS011;10604;51.976;7.594;2022-11-23T15:54:32;5.38;;;1.92;;
20888;SDS011;10604;51.976;7.594;2022-11-23T15:57:01;4.40;;;1.80;;
20888;SDS011;10604;51.976;7.594;2022-11-23T15:59:31;3.80;;;2.33;;
20888;SDS011;10604;51.976;7.594;2022-11-23T16:02:05;5.10;;;2.83;;
20888;SDS011;10604;51.976;7.594;2022-11-23T16:04:39;7.75;;;3.50;;
20888;SDS011;10604;51.976;7.594;2022-11-23T16:07:15;6.22;;;3.35;;
20888;SDS011;10604;51.976;7.594;2022-11-23T16:09:45;5.18;;;2.63;;
20888;SDS011;10604;51.976;7.594;2022-11-23T16:12:20;4.35;;;2.53;;
20888;SDS011;10604;51.976;7.594;2022-11-23T16:14:54;5.25;;;2.33;;
20888;SDS011;10604;51.976;7.594;2022-11-23T16:17:30;5.82;;;2.22;;
20888;SDS011;10604;51.976;7.594;2022-11-23T16:19:56;6.43;;;2.38;;
20888;SDS011;10604;51.976;7.594;2022-11-23T16:22:28;5.15;;;2.22;;
20888;SDS011;10604;51.976;7.594;2022-11-23T16:25:07;7.80;;;2.35;;
20888;SDS011;10604;51.976;7.594;2022-11-23T16:27:45;3.35;;;1.85;;
20888;SDS011;10604;51.976;7.594;2022-11-23T16:30:23;5.25;;;1.90;;
20888;SDS011;10604;51.976;7.594;2022-11-23T16:32:51;2.47;;;1.58;;
20888;SDS011;10604;51.976;7.594;2022-11-23T16:35:18;6.18;;;1.90;;
20888;SDS011;10604;51.976;7.594;2022-11-23T16:37:45;6.47;;;1.88;;
20888;SDS011;10604;51.976;7.594;2022-11-23T16:40:10;8.27;;;2.85;;
20888;SDS011;10604;51.976;7.594;2022-11-23T16:42:37;6.93;;;1.92;;